Aviation Digital Data Service (ADDS)

Output produced by METARs form (0818 UTC 10 December 2022)
found at http://www.aviationweather.gov/metar/data/
 
METAR text: KANK 100750Z AUTO 21009KT 10SM CLR M01/M15 A3020 RMK AO1 T10061155
Conditions at: KANK (SALIDA , CO, US) observed 0750 UTC 10 December 2022
Temperature: -0.6°C (31°F)
Dewpoint: -15.5°C ( 4°F) [RH = 31%]
Pressure (altimeter): 30.20 inches Hg (1022.8 mb)
Winds: from the SSW (210 degrees) at 10 MPH (9 knots; 4.6 m/s)
Visibility: 10 or more miles (16+ km)
Ceiling: at least 12,000 feet AGL
Clouds: sky clear below 12,000 feet AGL
Weather: automated observation with no human augmentation;
there may or may not be significant weather present at this time

METAR text: KANK 100730Z AUTO 28003KT 10SM CLR M01/M16 A3020 RMK AO1 T10121160
Conditions at: KANK (SALIDA , CO, US) observed 0730 UTC 10 December 2022
Temperature: -1.2°C (30°F)
Dewpoint: -16.0°C ( 3°F) [RH = 31%]
Pressure (altimeter): 30.20 inches Hg (1022.8 mb)
Winds: from the W (280 degrees) at 3 MPH (3 knots; 1.5 m/s)
Visibility: 10 or more miles (16+ km)
Ceiling: at least 12,000 feet AGL
Clouds: sky clear below 12,000 feet AGL
Weather: automated observation with no human augmentation;
there may or may not be significant weather present at this time